| Date | Time | Temp. (oF) | Dew Point (oF) | Rel. Hum. (%) | Press. (in.) | Wind Dir. (deg.) | Wind Speed (mph) | Hourly Rainfall (i n.) |
|
|---|---|---|---|---|---|---|---|---|---|
| 1 | 06/08 | 24:00 | 77 | 67 | 72 | 30.09 | 270 | 0 | 0.00 |
| 2 | 06/07 | 23:00 | 78 | 66 | 68 | 30.08 | 270 | 1 | 0.00 |
| 3 | 06/07 | 22:00 | 81 | 68 | 67 | 30.09 | 270 | 1 | 0.00 |
| 4 | 06/07 | 21:00 | 83 | 68 | 61 | 30.10 | 270 | 0 | 0.00 |
| 5 | 06/07 | 20:00 | 86 | 68 | 56 | 30.10 | 270 | 0 | 0.00 |
| 6 | 06/07 | 19:00 | 89 | 68 | 51 | 30.11 | 290 | 2 | 0.00 |
| 7 | 06/07 | 18:00 | 91 | 66 | 45 | 30.13 | 270 | 4 | 0.00 |
| 8 | 06/07 | 17:00 | 92 | 67 | 45 | 30.15 | 270 | 2 | 0.00 |
| 9 | 06/07 | 16:00 | 93 | 68 | 46 | 30.15 | 290 | 9 | 0.00 |
| 10 | 06/07 | 15:00 | 94 | 68 | 44 | 30.17 | 300 | 1 | 0.00 |
| 11 | 06/07 | 14:00 | 94 | 69 | 46 | 30.18 | 310 | 2 | 0.00 |
| 12 | 06/07 | 13:00 | 93 | 70 | 49 | 30.20 | 330 | 4 | 0.00 |
| 13 | 06/07 | 12:00 | 92 | 70 | 50 | 30.20 | 270 | 6 | 0.00 |
| 14 | 06/07 | 11:00 | 87 | 69 | 56 | 30.22 | 190 | 6 | 0.00 |
| 15 | 06/07 | 10:00 | 78 | 66 | 69 | 30.23 | 270 | 1 | 0.00 |
| 16 | 06/07 | 09:00 | 71 | 64 | 80 | 30.24 | 300 | 1 | 0.00 |
| 17 | 06/07 | 08:00 | 66 | 62 | 87 | 30.26 | 130 | 0 | 0.00 |
| 18 | 06/07 | 07:00 | 63 | 57 | 83 | 30.28 | 130 | 0 | 0.00 |
| 19 | 06/07 | 06:00 | 63 | 56 | 80 | 30.33 | 130 | 0 | 0.00 |
| 20 | 06/07 | 05:00 | 64 | 58 | 82 | 30.32 | 130 | 1 | 0.00 |
| 21 | 06/07 | 04:00 | 65 | 58 | 80 | 30.33 | 130 | 0 | 0.00 |
| 22 | 06/07 | 03:00 | 66 | 58 | 78 | 30.35 | 130 | 0 | 0.00 |
| 23 | 06/07 | 02:00 | 67 | 58 | 74 | 30.36 | 130 | 0 | 0.00 |
| 24 | 06/07 | 01:00 | 69 | 58 | 70 | 30.37 | 130 | 0 | 0.00 |